Barcroft Research Lab Weather observations

Data are for 10 minute period ending at time listed.
 Day   Time   Solar   Ave.   Ave.  Ave.  Vector  Std.   Max.    Baro.    
  of    of     Rad.   Air    Rel.  Wind   Wind   Dev.   Wind   Press.    
Year   Day            Temp.  Hum.  Speed  Dir.   Dir.   Gust            
2014   (PST)  Kw/m2    F      %     mph   deg.   deg.    mph     mb.    
------------------------------------------------------------------------
 360    4:30       0    1.0    28   15.5     2    -99    24.8   631.70  
 360    4:40       0    0.5    28   15.4     6    -99    22.0   631.70  
 360    4:50       1    0.8    27   19.0    12    -99    31.4   631.70  
 360    5:00       2    1.9    24   20.0    11    -99    28.6   631.70  
 360    5:10       8    2.4    22   19.7    11    -99    28.1   632.00  
 360    5:20      18    2.5    23   19.6    11    -99    26.7   632.00  
 360    5:30      40    2.7    24   19.0    12    -99    28.5   632.00  
 360    5:40      69    2.9    25   20.2    15    -99    29.1   632.00  
 360    5:50     104    3.4    26   19.9    14    -99    27.4   632.00  
 360    6:00     141    3.1    32   19.0     8    -99    28.6   632.00  
 360    6:10     172    3.4    32   19.6     6    -99    30.5   632.40  
 360    6:20     199    3.8    32   22.1     7    -99    33.2   632.40  
 360    6:30     227    3.7    32   24.2    14    -99    36.2   632.40  
 360    6:40     254    3.8    29   23.3    14    -99    33.0   632.40  
 360    6:50     280    3.8    27   24.7    17    -99    36.0   632.40  
 360    7:00     306    3.9    28   22.8    15    -99    33.4   632.40  
 360    7:10     331    3.9    28   23.6    14    -99    32.8   632.90  
 360    7:20     355    4.7    30   27.4    13    -99    38.3   632.90  
 360    7:30     379    5.5    30   26.2    12    -99    40.4   632.90  
 360    7:40     401    6.1    30   24.5    14    -99    39.7   632.90  
 360    7:50     421    6.4    30   24.3    13    -99    37.0   632.90  
 360    8:00     440    6.7    32   24.6    15    -99    37.8   632.90  
 360    8:10     458    6.7    32   23.8    15    -99    36.0   633.60  
 360    8:20     473    6.7    36   23.3    16    -99    40.6   633.60  
 360    8:30     488    6.7    36   23.9    17    -99    36.3   633.60  
 360    8:40     501    6.9    36   24.2    16    -99    41.9   633.60  
 360    8:50     512    7.1    34   22.7    15    -99    35.2   633.60  
 360    9:00     523    7.1    34   25.4    18    -99    40.0   633.60  
 360    9:10     530    7.1    33   24.4    17    -99    38.9   633.50  
 360    9:20     537    7.2    33   23.5    18    -99    39.5   633.50  
 360    9:30     541    7.4    30   23.8    17    -99    39.4   633.50  
 360    9:40     545    7.6    30   23.8    14    -99    38.6   633.50  
 360    9:50     546    7.4    31   25.0    17    -99    40.5   633.50  
 360   10:00     546    7.4    32   24.1    12    -99    36.8   633.50  
 360   10:10     544    7.7    30   23.4    15    -99    38.1   633.10  
 360   10:20     540    8.1    29   18.2     9    -99    29.7   633.10  
 360   10:30     535    8.1    27   21.3    10    -99    34.1   633.10  
 360   10:40     528    8.2    27   19.7     7    -99    34.0   633.10  
 360   10:50     519    8.5    26   18.7     3    -99    32.7   633.10  
 360   11:00     509    8.5    26   18.3   359    -99    29.5   633.10  
 360   11:10     497    8.5    26   16.8     2    -99    29.8   633.30  
 360   11:20     484    8.4    26   17.3   360    -99    31.0   633.30  
 360   11:30     469    8.3    27   16.4   354    -99    24.5   633.30  
 360   11:40     453    8.5    28   15.0   354    -99    29.0   633.30  
 360   11:50     434    8.6    33   11.8   346    -99    21.7   633.30  
 360   12:00     415    9.0    33   12.3   344    -99    28.9   633.30  
 360   12:10     394    8.7    36   12.9   346    -99    24.0   633.60  
 360   12:20     372    9.4    32   13.6   342    -99    23.2   633.60  
 360   12:30     349    9.2    36   14.1   338    -99    22.2   633.60  
 360   12:40     325    9.1    33   15.8   348    -99    25.6   633.60  
 360   12:50     300    9.3    28   16.8   353    -99    31.2   633.60  
 360   13:00     274    9.0    25   18.0   358    -99    34.4   633.60  
 360   13:10     247    8.6    25   19.6     3    -99    33.2   634.20  
 360   13:20     220    7.6    27   20.7    10    -99    34.3   634.20  
 360   13:30     193    6.8    31   18.8    10    -99    31.0   634.20  
 360   13:40     165    6.4    30   18.9     7    -99    33.2   634.20  
 360   13:50      93    6.7    28   18.8     2    -99    29.0   634.20  
 360   14:00      14    6.7    26   20.8     5    -99    33.6   634.20  
 360   14:10      12    6.4    25   21.2     3    -99    36.3   634.50  
 360   14:20      10    6.9    23   23.4    12    -99    40.8   634.50  
 360   14:30       8    6.7    24   22.6    11    -99    41.5   634.50  
 360   14:40       5    6.4    24   21.6     7    -99    37.0   634.50  
 360   14:50       2    6.8    22   22.5     7    -99    41.1   634.50  
 360   15:00       1    6.3    24   24.0     3    -99    45.5   634.50  
 360   15:10       0    6.5    24   25.0     9    -99    39.2   634.70  
 360   15:20       0    6.6    22   26.3     8    -99    44.2   634.70  
 360   15:30       0    5.9    22   25.4     6    -99    38.4   634.70  
 360   15:40       0    5.5    22   23.8     8    -99    35.3   634.70  
 360   15:50       0    5.2    22   27.3    12    -99    41.1   634.70  
 360   16:00       0    5.6    22   24.1     7    -99    39.8   634.70  
 360   16:10       0    6.4    22   25.4    12    -99    36.1   635.30  
 360   16:20       0    7.1    19   22.8     8    -99    39.7   635.30  
 360   16:30       0    7.1    21   23.9     6    -99    36.5   635.30  
 360   16:40       0    7.2    20   22.8     4    -99    41.4   635.30  
 360   16:50       0    7.4    20   20.8     5    -99    32.2   635.30  
 360   17:00       0    8.0    18   21.5     4    -99    36.2   635.30  
 360   17:10       0    7.8    18   21.7     4    -99    36.8   636.30  
 360   17:20       0    7.7    18   21.9     5    -99    34.3   636.30  
 360   17:30       0    7.9    17   20.9     6    -99    36.5   636.30  
 360   17:40       0    8.1    17   22.1     5    -99    38.4   636.30  
 360   17:50       0    8.1    18   22.0     4    -99    36.5   636.30  
 360   18:00       0    7.8    20   20.3     1    -99    31.9   636.30  
 360   18:10       0    8.0    19   21.4   358    -99    33.3   636.70  
 360   18:20       0    8.2    19   20.1   356    -99    30.2   636.70  
 360   18:30       0    8.0    19   18.8   357    -99    30.3   636.70  
 360   18:40       0    8.9    16   19.8     3    -99    46.6   636.70  
 360   18:50       0    9.8    15   19.9     5    -99    33.5   636.70  
 360   19:00       0   10.2    15   18.8   360    -99    33.1   636.70  
 360   19:10       0   10.7    15   21.6     4    -99    41.8   637.00  
 360   19:20       0   10.9    15   23.4    11    -99    38.7   637.00  
 360   19:30       0   10.7    16   24.1    10    -99    36.6   637.00  
 360   19:40       0   11.1    16   21.9     8    -99    33.5   637.00  
 360   19:50       0   11.6    16   21.7    10    -99    32.5   637.00  
 360   20:00       0   11.4    16   19.9     5    -99    30.2   637.00  
 360   20:10       0   11.6    16   20.6     8    -99    34.7   637.70  
 360   20:20       0   12.0    16   19.5     1    -99    32.0   637.70  
 360   20:30       0   11.9    16   20.5     5    -99    37.3   637.70  
 360   20:40       0   11.9    15   20.3     8    -99    31.4   637.70  
 360   20:50       0   12.1    16   21.6     8    -99    36.2   637.70  
 360   21:00       0   12.1    16   23.0    16    -99    32.7   637.70  
 360   21:10       0   11.8    16   20.9    10    -99    34.5   638.00  
 360   21:20       0   11.6    16   18.9     7    -99    33.5   638.00  
 360   21:30       0   11.2    16   18.0     5    -99    32.6   638.00  
 360   21:40       0   11.0    16   16.1     2    -99    25.6   638.00  
 360   21:50       0   11.1    17   15.0     2    -99    25.8   638.00  
 360   22:00       0   11.1    17   15.8   353    -99    25.7   638.00  
 360   22:10       0   11.2    17   16.4   358    -99    30.5   638.40  
 360   22:20       0   11.1    18   13.8   357    -99    23.5   638.40  
 360   22:30       0   11.0    18   14.4   354    -99    23.5   638.40  
 360   22:40       0   11.0    18   15.2   355    -99    26.1   638.40  
 360   22:50       0   11.6    18   16.0   356    -99    27.0   638.40  
 360   23:00       0   11.5    18   16.3   355    -99    28.2   638.40  
 360   23:10       0   11.8    19   16.6   355    -99    30.0   638.70  
 360   23:20       0   11.8    20   16.6   355    -99    26.1   638.70  
 360   23:30       0   11.4    21   16.9   344    -99    25.5   638.70  
 360   23:40       0   11.0    24   15.8   340    -99    25.6   638.70  
 360   23:50       0   11.2    23   16.4   340    -99    25.6   638.70  
 361    0:00       0   11.6    22   15.6   345    -99    25.5   638.70  
 361    0:10       0   11.8    21   16.2   346    -99    24.8   639.20  
 361    0:20       0   12.6    20   16.0   352    -99    26.2   639.20  
 361    0:30       0   12.5    21   15.2   350    -99    24.4   639.20  
 361    0:40       0   12.4    21   15.8   342    -99    23.6   639.20  
 361    0:50       0   12.4    22   15.0   348    -99    22.6   639.20  
 361    1:00       0   12.5    22   13.9   357    -99    21.9   639.20  
 361    1:10       0   13.0    20   18.0    12    -99    25.9   639.90  
 361    1:20       0   13.3    20   18.6    11    -99    26.3   639.90  
 361    1:30       0   14.0    19   18.0    13    -99    26.4   639.90  
 361    1:40       0   15.3    19   14.2     6    -99    23.6   639.90  
 361    1:50       0   15.1    20   15.3     9    -99    24.5   639.90  
 361    2:00       0   15.3    21   13.2   359    -99    22.3   639.90  
 361    2:10       0   16.4    19   13.0   349    -99    21.4   640.00  
 361    2:20       0   17.3    18   14.3   346    -99    28.6   640.00  
 361    2:30       0   17.3    19   13.4   344    -99    25.8   640.00  
 361    2:40       0   17.1    20   12.6   347    -99    24.6   640.00  
 361    2:50       0   16.7    21   12.1   338    -99    22.5   640.00  
 361    3:00       0   16.6    21   12.2   336    -99    21.3   640.00  
 361    3:10       0   16.8    22   11.7   354    -99    18.9   640.20  
 361    3:20       0   16.2    21   11.5     2    -99    19.3   640.20  
 361    3:30       0   16.2    22   11.3   337    -99    22.4   640.20  
 361    3:40       0   14.4    23    9.3   325    -99    13.4   640.20  
 361    3:50       0   13.4    24    9.5   332    -99    14.5   640.20  
 361    4:00       0   14.9    22   10.4   330    -99    16.7   640.20  
 361    4:10       0   14.0    23    9.5   337    -99    22.1   640.40  
 361    4:20       0   15.7    21    9.9   333    -99    19.1   640.40  

Return to Barcroft Research Lab graphs page.


Western Regional Climate Center,wrcc@dri.edu